Blue Diamond, NV (89004)

9:24 AM PDT on May 03, 2015 (GMT -0700)
RAWS | | Change Station
CLOSE
Current Station
Personal Weather Station
Location: Blue Diamond, NV
Elevation: 3755 ft
Nearby Weather Stations

Elev 3755 ft 36.13 °N, 115.43 °W | Updated 50 minutes ago

Clear
Clear
74 °F
Feels Like 75 °F
N
4
Wind Variable Wind from ENE
Gusts 7.0 mph

Today
High -- | Low -- °F
--% Chance of Precip.
Yesterday
High -- | Low -- °F
Precip. -- in
5:47 AM 7:30 PM
Full, 100% visible
Pressure 29.75 in
Visibility 10.0 miles
Clouds Few 10000 ft
Heat Index 75 °F
Dew Point 29 °F
Humidity 19%
Rainfall in
Snow Depth Not available.
UV 4 out of 12
Pollen 8.00 out of 12
Air Quality Not available.
Flu Activity Sporadic
METAR KLAS 031556Z 20010KT 10SM FEW100 26/M02 A2982 RMK AO2 SLP073 T02611022

More Conditions Fewer Conditions

Pressure 29.75 in
Visibility 10.0 miles
Clouds Few 10000 ft
Heat Index 75 °F
Dew Point 29 °F
Humidity 19%
Rainfall in
Snow Depth Not available.
UV 4 out of 12
Pollen 8.00 out of 12
Air Quality Not available.
Flu Activity Sporadic
METAR KLAS 031556Z 20010KT 10SM FEW100 26/M02 A2982 RMK AO2 SLP073 T02611022

More Conditions Fewer Conditions

Nepal has a long way to go to dig out and rebuild from a devastating earthquake. We have teamed up with several charities and organizations to make contributing to the relief effort as easy as possible.
How you can help: Portlight Strategies | Red Cross

10-Day Weather Forecast

Almanac

Astronomy

May. 03, 2015 Rise Set
Actual Time
Civil Twilight
Nautical Twilight
Astronomical Twilight
Moon
Length of Visible Light
Length of Day
Tomorrow will be .
, % of the Moon is Illuminated

Today's Extremes

State Highs State Lows

Community

WunderPhotos

Upload Photos

1,818,264 photos uploaded!

WunderBlogs® & News

Nearby

Air Quality

  Air Quality AQ Index Pollutant
Not available.

Snow Depth

Station Depth Elevation

Earthquake Activity

City Distance Mag. Time & Date
Minimum magnitude displayed is 2.5.

Coastal Water Temperatures

Place Temperature

Stations

Nearby Weather Stations

Station Location Temp. Windchill Dew Point Humidity Wind Precip. Elev Updated Type